MSC2961 EDDB-HEGN
Flight info
| Callsign | MSC2961 |
|---|---|
| Flight time | 4h 7m |
| Altitude | 31000 |
| Route | LUROS3Q/06R LUROS M725 HDO DCT EVIKU/N0443F350 DCT ODNEM DCT XOMBA DCT KEROP DCT SOVIN DCT RAXAD DCT MAKED UL617 KEA UL607 GENDO/N0437F370 UL607 PAXIS L607 NABSI P557 OBRAN L321 REXUM M872 BOPOB |
| Aircraft | A320/M-SDE3FGHIRWY/LB1 |
Departure
| Time | 2026-05-06 13:31 |
|---|---|
| Airport | Berlin Brandenburg Airport (EDDB) |
Arrival
| Time | 2026-05-06 17:38 |
|---|---|
| Airport | Hurghada International Airport (HEGN) |
| Time | Latitude | Longitude | Altitude | Speed | Heading |
|---|---|---|---|---|---|
| 2026-05-06 12:44 | 52.36468 | 13.50542 | 155 ft | 0 kts | 69° |
| 2026-05-06 13:16 | 52.36465 | 13.50530 | 154 ft | 4 kts | 69° |
| 2026-05-06 13:17 | 52.36455 | 13.50489 | 154 ft | 4 kts | 69° |
| 2026-05-06 13:17 | 52.36447 | 13.50456 | 154 ft | 4 kts | 75° |
| 2026-05-06 13:17 | 52.36446 | 13.50415 | 154 ft | 4 kts | 115° |
| 2026-05-06 13:17 | 52.36460 | 13.50390 | 154 ft | 1 kts | 159° |
| 2026-05-06 13:20 | 52.36437 | 13.50404 | 154 ft | 6 kts | 159° |
| 2026-05-06 13:21 | 52.36376 | 13.50442 | 154 ft | 13 kts | 159° |
| 2026-05-06 13:21 | 52.36295 | 13.50494 | 154 ft | 11 kts | 159° |
| 2026-05-06 13:21 | 52.36227 | 13.50537 | 154 ft | 10 kts | 158° |
| 2026-05-06 13:21 | 52.36170 | 13.50573 | 154 ft | 8 kts | 159° |
| 2026-05-06 13:22 | 52.36124 | 13.50602 | 154 ft | 6 kts | 159° |
| 2026-05-06 13:22 | 52.36088 | 13.50625 | 154 ft | 5 kts | 159° |
| 2026-05-06 13:22 | 52.36041 | 13.50655 | 154 ft | 12 kts | 159° |
| 2026-05-06 13:22 | 52.35942 | 13.50716 | 154 ft | 17 kts | 159° |
| 2026-05-06 13:23 | 52.35842 | 13.50777 | 154 ft | 14 kts | 169° |
| 2026-05-06 13:23 | 52.35788 | 13.50685 | 154 ft | 11 kts | 245° |
| 2026-05-06 13:23 | 52.35740 | 13.50481 | 154 ft | 27 kts | 250° |
| 2026-05-06 13:23 | 52.35669 | 13.50183 | 154 ft | 28 kts | 248° |
| 2026-05-06 13:24 | 52.35597 | 13.49883 | 154 ft | 29 kts | 248° |
| 2026-05-06 13:24 | 52.35525 | 13.49575 | 154 ft | 29 kts | 249° |
| 2026-05-06 13:24 | 52.35451 | 13.49265 | 154 ft | 29 kts | 249° |
| 2026-05-06 13:24 | 52.35377 | 13.48954 | 157 ft | 29 kts | 248° |
| 2026-05-06 13:25 | 52.35306 | 13.48657 | 154 ft | 25 kts | 249° |
| 2026-05-06 13:25 | 52.35250 | 13.48485 | 154 ft | 13 kts | 206° |
| 2026-05-06 13:25 | 52.35170 | 13.48510 | 154 ft | 11 kts | 159° |
| 2026-05-06 13:25 | 52.35112 | 13.48569 | 162 ft | 9 kts | 124° |
| 2026-05-06 13:26 | 52.35098 | 13.48653 | 154 ft | 5 kts | 98° |
| 2026-05-06 13:26 | 52.35096 | 13.48667 | 154 ft | 0 kts | 98° |
| 2026-05-06 13:29 | 52.35092 | 13.48712 | 154 ft | 8 kts | 99° |
| 2026-05-06 13:29 | 52.35080 | 13.48844 | 154 ft | 13 kts | 97° |
| 2026-05-06 13:29 | 52.35048 | 13.48951 | 154 ft | 9 kts | 140° |
| 2026-05-06 13:29 | 52.35053 | 13.48990 | 154 ft | 0 kts | 69° |
| 2026-05-06 13:30 | 52.35057 | 13.49010 | 154 ft | 10 kts | 69° |
| 2026-05-06 13:30 | 52.35175 | 13.49506 | 154 ft | 84 kts | 68° |
| 2026-05-06 13:30 | 52.35467 | 13.50734 | 155 ft | 145 kts | 69° |
| 2026-05-06 13:30 | 52.35877 | 13.52413 | 508 ft | 163 kts | 68° |
| 2026-05-06 13:31 | 52.36142 | 13.54218 | 1227 ft | 168 kts | 97° |
| 2026-05-06 13:31 | 52.35552 | 13.55864 | 1613 ft | 186 kts | 140° |
| 2026-05-06 13:31 | 52.34440 | 13.57165 | 1841 ft | 207 kts | 144° |
| 2026-05-06 13:31 | 52.33228 | 13.58541 | 2318 ft | 214 kts | 144° |
| 2026-05-06 13:32 | 52.32009 | 13.59933 | 2988 ft | 214 kts | 142° |
| 2026-05-06 13:32 | 52.31092 | 13.61799 | 3555 ft | 214 kts | 106° |
| 2026-05-06 13:32 | 52.31088 | 13.64261 | 3873 ft | 227 kts | 71° |
| 2026-05-06 13:32 | 52.31709 | 13.66698 | 4312 ft | 236 kts | 68° |
| 2026-05-06 13:33 | 52.32254 | 13.69264 | 4941 ft | 242 kts | 71° |
| 2026-05-06 13:33 | 52.32750 | 13.71932 | 5524 ft | 248 kts | 74° |
| 2026-05-06 13:33 | 52.32984 | 13.74761 | 6039 ft | 259 kts | 92° |
| 2026-05-06 13:33 | 52.32575 | 13.77724 | 6263 ft | 278 kts | 120° |
| 2026-05-06 13:34 | 52.31336 | 13.80145 | 6718 ft | 281 kts | 149° |
| 2026-05-06 13:34 | 52.29564 | 13.81339 | 7354 ft | 276 kts | 175° |
| 2026-05-06 13:34 | 52.27656 | 13.81793 | 8088 ft | 278 kts | 175° |
| 2026-05-06 13:34 | 52.25751 | 13.82517 | 8816 ft | 282 kts | 171° |
| 2026-05-06 13:35 | 52.23839 | 13.83308 | 9565 ft | 285 kts | 171° |
| 2026-05-06 13:35 | 52.21900 | 13.84114 | 10092 ft | 295 kts | 170° |
| 2026-05-06 13:35 | 52.19835 | 13.84973 | 10237 ft | 318 kts | 170° |
| 2026-05-06 13:35 | 52.17627 | 13.85899 | 10479 ft | 334 kts | 169° |
| 2026-05-06 13:36 | 52.15364 | 13.86860 | 11052 ft | 339 kts | 169° |
| 2026-05-06 13:36 | 52.13073 | 13.87833 | 11707 ft | 341 kts | 169° |
| 2026-05-06 13:36 | 52.10796 | 13.88796 | 12344 ft | 344 kts | 169° |
| 2026-05-06 13:36 | 52.08472 | 13.89775 | 13012 ft | 346 kts | 169° |
| 2026-05-06 13:37 | 52.06101 | 13.90771 | 13650 ft | 349 kts | 169° |
| 2026-05-06 13:37 | 52.03740 | 13.91759 | 14206 ft | 352 kts | 169° |
| 2026-05-06 13:37 | 52.01362 | 13.92752 | 14767 ft | 354 kts | 169° |
| 2026-05-06 13:37 | 51.98975 | 13.93748 | 15319 ft | 356 kts | 170° |
| 2026-05-06 13:38 | 51.96557 | 13.94759 | 15878 ft | 359 kts | 169° |
| 2026-05-06 13:38 | 51.94133 | 13.95775 | 16420 ft | 362 kts | 170° |
| 2026-05-06 13:38 | 51.91724 | 13.96780 | 16971 ft | 363 kts | 169° |
| 2026-05-06 13:38 | 51.89269 | 13.97805 | 17555 ft | 365 kts | 169° |
| 2026-05-06 13:39 | 51.86792 | 13.98837 | 18109 ft | 368 kts | 170° |
| 2026-05-06 13:39 | 51.84309 | 13.99870 | 18591 ft | 370 kts | 170° |
| 2026-05-06 13:39 | 51.81807 | 14.00909 | 19056 ft | 373 kts | 170° |
| 2026-05-06 13:39 | 51.79283 | 14.01952 | 19524 ft | 375 kts | 170° |
| 2026-05-06 13:40 | 51.76747 | 14.02998 | 19986 ft | 378 kts | 170° |
| 2026-05-06 13:40 | 51.74185 | 14.04051 | 20454 ft | 381 kts | 170° |
| 2026-05-06 13:40 | 51.71611 | 14.05109 | 20902 ft | 384 kts | 170° |
| 2026-05-06 13:40 | 51.69012 | 14.06179 | 21348 ft | 386 kts | 170° |
| 2026-05-06 13:41 | 51.66399 | 14.07259 | 21794 ft | 389 kts | 170° |
| 2026-05-06 13:41 | 51.63770 | 14.08347 | 22229 ft | 391 kts | 170° |
| 2026-05-06 13:41 | 51.61125 | 14.09439 | 22654 ft | 394 kts | 170° |
| 2026-05-06 13:41 | 51.58466 | 14.10535 | 23063 ft | 396 kts | 170° |
| 2026-05-06 13:42 | 51.55788 | 14.11636 | 23442 ft | 399 kts | 170° |
| 2026-05-06 13:42 | 51.53088 | 14.12742 | 23790 ft | 400 kts | 170° |
| 2026-05-06 13:42 | 51.50385 | 14.13849 | 24162 ft | 401 kts | 170° |
| 2026-05-06 13:42 | 51.47674 | 14.14955 | 24519 ft | 402 kts | 170° |
| 2026-05-06 13:43 | 51.44957 | 14.16059 | 24868 ft | 403 kts | 171° |
| 2026-05-06 13:43 | 51.42231 | 14.17167 | 25203 ft | 404 kts | 170° |
| 2026-05-06 13:43 | 51.39505 | 14.18275 | 25536 ft | 404 kts | 170° |
| 2026-05-06 13:43 | 51.36774 | 14.19386 | 25883 ft | 405 kts | 170° |
| 2026-05-06 13:44 | 51.34041 | 14.20493 | 26213 ft | 406 kts | 170° |
| 2026-05-06 13:44 | 51.31297 | 14.21603 | 26536 ft | 407 kts | 170° |
| 2026-05-06 13:44 | 51.28577 | 14.22705 | 26842 ft | 408 kts | 170° |
| 2026-05-06 13:44 | 51.25817 | 14.23820 | 27149 ft | 409 kts | 171° |
| 2026-05-06 13:45 | 51.23052 | 14.24936 | 27465 ft | 410 kts | 171° |
| 2026-05-06 13:45 | 51.17509 | 14.27179 | 28044 ft | 412 kts | 171° |
| 2026-05-06 13:45 | 51.14723 | 14.28306 | 28274 ft | 414 kts | 171° |
| 2026-05-06 13:46 | 51.11925 | 14.29432 | 28512 ft | 416 kts | 171° |
| 2026-05-06 13:46 | 51.09106 | 14.30557 | 28767 ft | 417 kts | 171° |
| 2026-05-06 13:46 | 51.06280 | 14.31667 | 29001 ft | 418 kts | 171° |
| 2026-05-06 13:46 | 51.03445 | 14.32767 | 29164 ft | 421 kts | 172° |
| 2026-05-06 13:47 | 51.00590 | 14.33868 | 29359 ft | 423 kts | 172° |
| 2026-05-06 13:47 | 50.97720 | 14.34974 | 29559 ft | 425 kts | 172° |
| 2026-05-06 13:47 | 50.94843 | 14.36084 | 29779 ft | 426 kts | 172° |
| 2026-05-06 13:47 | 50.91960 | 14.37201 | 29953 ft | 428 kts | 171° |
| 2026-05-06 13:48 | 50.89159 | 14.38899 | 30218 ft | 437 kts | 156° |
| 2026-05-06 13:48 | 50.86692 | 14.41800 | 30484 ft | 447 kts | 144° |
| 2026-05-06 13:48 | 50.84403 | 14.45140 | 30698 ft | 448 kts | 143° |
| 2026-05-06 13:48 | 50.82140 | 14.48485 | 30763 ft | 442 kts | 143° |
| 2026-05-06 13:49 | 50.77717 | 14.55073 | 30781 ft | 433 kts | 143° |
| 2026-05-06 13:49 | 50.73356 | 14.61517 | 30768 ft | 432 kts | 144° |
| 2026-05-06 13:50 | 50.68954 | 14.67972 | 30774 ft | 432 kts | 144° |
| 2026-05-06 13:50 | 50.64534 | 14.74418 | 30778 ft | 432 kts | 144° |
| 2026-05-06 13:51 | 50.60127 | 14.80844 | 30775 ft | 432 kts | 144° |
| 2026-05-06 13:51 | 50.55684 | 14.87192 | 30780 ft | 431 kts | 145° |
| 2026-05-06 13:52 | 50.51222 | 14.93471 | 30778 ft | 430 kts | 145° |
| 2026-05-06 13:52 | 50.46765 | 14.99734 | 30752 ft | 430 kts | 145° |
| 2026-05-06 13:53 | 50.42308 | 15.05996 | 30759 ft | 430 kts | 145° |
| 2026-05-06 13:53 | 50.37852 | 15.12250 | 30765 ft | 430 kts | 145° |
| 2026-05-06 13:54 | 50.33392 | 15.18485 | 30756 ft | 429 kts | 145° |
| 2026-05-06 13:54 | 50.28929 | 15.24695 | 30762 ft | 430 kts | 145° |
| 2026-05-06 13:55 | 50.24485 | 15.30862 | 30767 ft | 430 kts | 145° |
| 2026-05-06 13:55 | 50.20011 | 15.37076 | 30766 ft | 431 kts | 145° |
| 2026-05-06 13:56 | 50.15525 | 15.43297 | 30782 ft | 431 kts | 145° |
| 2026-05-06 13:56 | 50.11039 | 15.49498 | 30791 ft | 431 kts | 145° |
| 2026-05-06 13:57 | 50.06544 | 15.55689 | 30797 ft | 431 kts | 146° |
| 2026-05-06 13:57 | 50.02052 | 15.61860 | 30800 ft | 431 kts | 145° |
| 2026-05-06 13:58 | 49.97552 | 15.68028 | 30776 ft | 430 kts | 145° |
| 2026-05-06 13:58 | 49.93092 | 15.74124 | 30787 ft | 430 kts | 146° |
| 2026-05-06 13:59 | 49.88596 | 15.80247 | 30773 ft | 430 kts | 146° |
| 2026-05-06 13:59 | 49.84079 | 15.86373 | 30756 ft | 433 kts | 146° |
| 2026-05-06 14:00 | 49.79527 | 15.92531 | 30758 ft | 436 kts | 146° |
| 2026-05-06 14:00 | 49.74949 | 15.98717 | 30750 ft | 438 kts | 146° |
| 2026-05-06 14:01 | 49.71117 | 16.03888 | 30776 ft | 442 kts | 145° |
| 2026-05-06 14:01 | 49.66487 | 16.10137 | 30783 ft | 442 kts | 145° |
| 2026-05-06 14:02 | 49.61855 | 16.16369 | 30788 ft | 442 kts | 146° |
| 2026-05-06 14:02 | 49.57213 | 16.22570 | 30790 ft | 442 kts | 146° |
| 2026-05-06 14:03 | 49.52557 | 16.28777 | 30794 ft | 442 kts | 146° |
| 2026-05-06 14:03 | 49.47909 | 16.34971 | 30761 ft | 442 kts | 145° |
| 2026-05-06 14:04 | 49.43248 | 16.41157 | 30773 ft | 443 kts | 145° |
| 2026-05-06 14:04 | 49.38584 | 16.47336 | 30788 ft | 443 kts | 146° |
| 2026-05-06 14:05 | 49.33923 | 16.53493 | 30791 ft | 443 kts | 146° |
| 2026-05-06 14:05 | 49.29254 | 16.59654 | 30797 ft | 443 kts | 146° |
| 2026-05-06 14:06 | 49.24605 | 16.65759 | 30772 ft | 442 kts | 145° |
| 2026-05-06 14:06 | 49.19932 | 16.71886 | 30780 ft | 442 kts | 145° |
| 2026-05-06 14:07 | 49.15253 | 16.78009 | 30776 ft | 444 kts | 145° |
| 2026-05-06 14:07 | 49.10552 | 16.84139 | 30782 ft | 445 kts | 146° |
| 2026-05-06 14:08 | 49.05843 | 16.90264 | 30790 ft | 445 kts | 146° |
| 2026-05-06 14:08 | 49.01119 | 16.96386 | 30775 ft | 445 kts | 144° |
| 2026-05-06 14:09 | 48.96395 | 17.02511 | 30787 ft | 446 kts | 144° |
| 2026-05-06 14:09 | 48.91665 | 17.08613 | 30797 ft | 446 kts | 145° |
| 2026-05-06 14:10 | 48.86912 | 17.14721 | 30792 ft | 447 kts | 146° |
| 2026-05-06 14:10 | 48.81749 | 17.19757 | 30787 ft | 440 kts | 157° |
| 2026-05-06 14:11 | 48.76407 | 17.24203 | 30789 ft | 441 kts | 156° |
| 2026-05-06 14:11 | 48.71022 | 17.28692 | 30793 ft | 441 kts | 156° |
| 2026-05-06 14:12 | 48.65639 | 17.33163 | 30799 ft | 442 kts | 156° |
| 2026-05-06 14:12 | 48.60247 | 17.37623 | 30797 ft | 441 kts | 157° |
| 2026-05-06 14:13 | 48.54850 | 17.42071 | 30796 ft | 441 kts | 157° |
| 2026-05-06 14:13 | 48.49494 | 17.46479 | 30799 ft | 441 kts | 157° |
| 2026-05-06 14:14 | 48.44102 | 17.50910 | 30787 ft | 442 kts | 157° |
| 2026-05-06 14:14 | 48.38693 | 17.55332 | 30782 ft | 443 kts | 157° |
| 2026-05-06 14:15 | 48.33261 | 17.59767 | 30786 ft | 445 kts | 157° |
| 2026-05-06 14:15 | 48.27811 | 17.64214 | 30799 ft | 446 kts | 157° |
| 2026-05-06 14:16 | 48.22356 | 17.68649 | 30806 ft | 446 kts | 157° |
| 2026-05-06 14:16 | 48.16919 | 17.73054 | 30821 ft | 447 kts | 157° |
| 2026-05-06 14:17 | 48.11448 | 17.77486 | 30797 ft | 447 kts | 156° |
| 2026-05-06 14:17 | 48.05963 | 17.81923 | 30819 ft | 449 kts | 156° |
| 2026-05-06 14:18 | 48.00458 | 17.86352 | 30828 ft | 450 kts | 156° |
| 2026-05-06 14:18 | 47.94943 | 17.90784 | 30841 ft | 450 kts | 156° |
| 2026-05-06 14:19 | 47.89424 | 17.95205 | 30849 ft | 450 kts | 157° |
| 2026-05-06 14:19 | 47.83908 | 17.99617 | 30852 ft | 450 kts | 157° |
| 2026-05-06 14:20 | 47.78382 | 18.04028 | 30843 ft | 451 kts | 156° |
| 2026-05-06 14:20 | 47.73044 | 18.08994 | 30852 ft | 456 kts | 148° |
| 2026-05-06 14:21 | 47.67896 | 18.14535 | 30858 ft | 457 kts | 148° |
| 2026-05-06 14:21 | 47.62779 | 18.20040 | 30863 ft | 457 kts | 149° |
| 2026-05-06 14:22 | 47.57627 | 18.25561 | 30871 ft | 457 kts | 149° |
| 2026-05-06 14:22 | 47.52478 | 18.31073 | 30856 ft | 457 kts | 148° |
| 2026-05-06 14:23 | 47.47311 | 18.36577 | 30872 ft | 458 kts | 148° |
| 2026-05-06 14:23 | 47.42131 | 18.42076 | 30873 ft | 459 kts | 148° |
| 2026-05-06 14:24 | 47.36941 | 18.47573 | 30876 ft | 459 kts | 149° |
| 2026-05-06 14:24 | 47.31749 | 18.53060 | 30880 ft | 459 kts | 149° |
| 2026-05-06 14:25 | 47.26553 | 18.58547 | 30875 ft | 460 kts | 148° |
| 2026-05-06 14:25 | 47.21349 | 18.64032 | 30879 ft | 460 kts | 148° |
| 2026-05-06 14:26 | 47.16136 | 18.69515 | 30891 ft | 461 kts | 148° |
| 2026-05-06 14:26 | 47.10915 | 18.74995 | 30892 ft | 461 kts | 149° |
| 2026-05-06 14:27 | 47.05693 | 18.80450 | 30887 ft | 461 kts | 149° |
| 2026-05-06 14:27 | 47.00453 | 18.85899 | 30883 ft | 462 kts | 149° |
| 2026-05-06 14:28 | 46.95203 | 18.91344 | 30890 ft | 463 kts | 149° |
| 2026-05-06 14:28 | 46.89978 | 18.96771 | 30892 ft | 463 kts | 149° |
| 2026-05-06 14:29 | 46.84723 | 19.02214 | 30899 ft | 463 kts | 149° |
| 2026-05-06 14:29 | 46.79458 | 19.07637 | 30890 ft | 463 kts | 149° |
| 2026-05-06 14:30 | 46.74183 | 19.13060 | 30886 ft | 464 kts | 149° |
| 2026-05-06 14:30 | 46.68908 | 19.18496 | 30891 ft | 464 kts | 149° |
| 2026-05-06 14:31 | 46.63621 | 19.23917 | 30895 ft | 465 kts | 149° |
| 2026-05-06 14:31 | 46.58333 | 19.29305 | 30903 ft | 465 kts | 149° |
| 2026-05-06 14:32 | 46.53029 | 19.34707 | 30888 ft | 465 kts | 149° |
| 2026-05-06 14:32 | 46.47738 | 19.40105 | 30898 ft | 465 kts | 149° |
| 2026-05-06 14:33 | 46.42440 | 19.45487 | 30899 ft | 465 kts | 149° |
| 2026-05-06 14:33 | 46.37133 | 19.50849 | 30907 ft | 465 kts | 149° |
| 2026-05-06 14:34 | 46.31845 | 19.56162 | 30907 ft | 464 kts | 151° |
| 2026-05-06 14:34 | 46.26149 | 19.60373 | 30899 ft | 460 kts | 158° |
| 2026-05-06 14:35 | 46.20367 | 19.64405 | 31027 ft | 465 kts | 158° |
| 2026-05-06 14:35 | 46.17438 | 19.66436 | 31164 ft | 467 kts | 158° |
| 2026-05-06 14:35 | 46.14509 | 19.68488 | 31336 ft | 469 kts | 158° |
| 2026-05-06 14:36 | 46.11591 | 19.70576 | 31568 ft | 469 kts | 158° |
| 2026-05-06 14:36 | 46.08680 | 19.72688 | 31801 ft | 469 kts | 157° |
| 2026-05-06 14:36 | 46.05766 | 19.74810 | 32029 ft | 468 kts | 157° |
| 2026-05-06 14:36 | 46.02854 | 19.76926 | 32277 ft | 468 kts | 158° |
| 2026-05-06 14:37 | 45.99946 | 19.79029 | 32512 ft | 467 kts | 158° |
| 2026-05-06 14:37 | 45.97040 | 19.81123 | 32741 ft | 467 kts | 158° |
| 2026-05-06 14:37 | 45.94136 | 19.83203 | 32972 ft | 467 kts | 158° |
| 2026-05-06 14:37 | 45.91231 | 19.85276 | 33201 ft | 466 kts | 158° |
| 2026-05-06 14:38 | 45.88326 | 19.87342 | 33429 ft | 466 kts | 158° |
| 2026-05-06 14:38 | 45.85419 | 19.89404 | 33660 ft | 466 kts | 158° |
| 2026-05-06 14:38 | 45.82520 | 19.91463 | 33877 ft | 465 kts | 158° |
| 2026-05-06 14:38 | 45.79623 | 19.93522 | 34106 ft | 464 kts | 158° |
| 2026-05-06 14:39 | 45.76734 | 19.95574 | 34315 ft | 463 kts | 158° |
| 2026-05-06 14:39 | 45.73842 | 19.97629 | 34527 ft | 462 kts | 158° |
| 2026-05-06 14:39 | 45.70994 | 19.99652 | 34711 ft | 462 kts | 158° |
| 2026-05-06 14:39 | 45.68113 | 20.01697 | 34874 ft | 463 kts | 158° |
| 2026-05-06 14:40 | 45.62338 | 20.05787 | 34928 ft | 462 kts | 158° |
| 2026-05-06 14:40 | 45.56581 | 20.09845 | 34929 ft | 461 kts | 158° |
| 2026-05-06 14:41 | 45.50823 | 20.13888 | 34932 ft | 461 kts | 158° |
| 2026-05-06 14:41 | 45.45079 | 20.17923 | 34937 ft | 460 kts | 158° |
| 2026-05-06 14:42 | 45.39325 | 20.21944 | 34917 ft | 461 kts | 158° |
| 2026-05-06 14:42 | 45.33567 | 20.25967 | 34913 ft | 461 kts | 158° |
| 2026-05-06 14:43 | 45.27805 | 20.29991 | 34932 ft | 461 kts | 158° |
| 2026-05-06 14:43 | 45.22032 | 20.34006 | 34945 ft | 461 kts | 158° |
| 2026-05-06 14:44 | 45.16309 | 20.37978 | 34946 ft | 461 kts | 158° |
| 2026-05-06 14:45 | 45.07654 | 20.43960 | 34935 ft | 461 kts | 158° |
| 2026-05-06 14:45 | 45.01880 | 20.47943 | 34940 ft | 461 kts | 158° |
| 2026-05-06 14:46 | 44.96101 | 20.51913 | 34952 ft | 461 kts | 158° |
| 2026-05-06 14:46 | 44.90344 | 20.55843 | 34952 ft | 461 kts | 158° |
| 2026-05-06 14:47 | 44.84564 | 20.59772 | 34948 ft | 461 kts | 158° |
| 2026-05-06 14:47 | 44.78770 | 20.63702 | 34935 ft | 462 kts | 158° |
| 2026-05-06 14:48 | 44.72980 | 20.67624 | 34932 ft | 462 kts | 158° |
| 2026-05-06 14:48 | 44.67181 | 20.71538 | 34933 ft | 462 kts | 158° |
| 2026-05-06 14:49 | 44.62361 | 20.74787 | 34928 ft | 462 kts | 158° |
| 2026-05-06 14:49 | 44.56563 | 20.78688 | 34930 ft | 462 kts | 158° |
| 2026-05-06 14:50 | 44.49820 | 20.83224 | 34932 ft | 463 kts | 158° |
| 2026-05-06 14:50 | 44.44958 | 20.86484 | 34934 ft | 463 kts | 158° |
| 2026-05-06 14:51 | 44.39183 | 20.90349 | 34932 ft | 462 kts | 158° |
| 2026-05-06 14:51 | 44.33381 | 20.94227 | 34941 ft | 462 kts | 158° |
| 2026-05-06 14:52 | 44.27575 | 20.98098 | 34941 ft | 462 kts | 158° |
| 2026-05-06 14:52 | 44.21761 | 21.01958 | 34937 ft | 463 kts | 158° |
| 2026-05-06 14:53 | 44.15944 | 21.05798 | 34926 ft | 463 kts | 158° |
| 2026-05-06 14:53 | 44.10118 | 21.09638 | 34930 ft | 463 kts | 158° |
| 2026-05-06 14:54 | 44.04296 | 21.13485 | 34936 ft | 463 kts | 158° |
| 2026-05-06 14:54 | 43.98475 | 21.17333 | 34935 ft | 464 kts | 158° |
| 2026-05-06 14:55 | 43.92642 | 21.21161 | 34927 ft | 464 kts | 158° |
| 2026-05-06 14:55 | 43.86840 | 21.24957 | 34935 ft | 464 kts | 158° |
| 2026-05-06 14:56 | 43.80999 | 21.28779 | 34938 ft | 464 kts | 158° |
| 2026-05-06 14:56 | 43.75155 | 21.32588 | 34944 ft | 464 kts | 158° |
| 2026-05-06 14:57 | 43.69314 | 21.36396 | 34925 ft | 464 kts | 158° |
| 2026-05-06 14:57 | 43.63461 | 21.40196 | 34931 ft | 465 kts | 158° |
| 2026-05-06 14:58 | 43.57608 | 21.43991 | 34941 ft | 465 kts | 158° |
| 2026-05-06 14:58 | 43.51758 | 21.47780 | 34937 ft | 465 kts | 158° |
| 2026-05-06 14:59 | 43.45905 | 21.51572 | 34943 ft | 465 kts | 158° |
| 2026-05-06 14:59 | 43.40043 | 21.55351 | 34937 ft | 465 kts | 158° |
| 2026-05-06 15:00 | 43.34207 | 21.59103 | 34935 ft | 466 kts | 158° |
| 2026-05-06 15:00 | 43.28330 | 21.62872 | 34938 ft | 466 kts | 158° |
| 2026-05-06 15:01 | 43.22439 | 21.66640 | 34946 ft | 466 kts | 158° |
| 2026-05-06 15:01 | 43.16560 | 21.70391 | 34954 ft | 466 kts | 158° |
| 2026-05-06 15:02 | 43.10674 | 21.74141 | 34959 ft | 466 kts | 159° |
| 2026-05-06 15:02 | 43.04699 | 21.77330 | 34959 ft | 463 kts | 163° |
| 2026-05-06 15:03 | 42.98629 | 21.80281 | 34976 ft | 462 kts | 164° |
| 2026-05-06 15:03 | 42.92560 | 21.83190 | 34985 ft | 462 kts | 164° |
| 2026-05-06 15:04 | 42.86492 | 21.86139 | 34966 ft | 463 kts | 163° |
| 2026-05-06 15:04 | 42.80426 | 21.89126 | 34956 ft | 464 kts | 163° |
| 2026-05-06 15:05 | 42.74358 | 21.92113 | 34959 ft | 464 kts | 163° |
| 2026-05-06 15:05 | 42.68282 | 21.95075 | 34966 ft | 464 kts | 163° |
| 2026-05-06 15:06 | 42.62249 | 21.97999 | 34965 ft | 464 kts | 164° |
| 2026-05-06 15:06 | 42.56163 | 22.00938 | 34968 ft | 464 kts | 164° |
| 2026-05-06 15:07 | 42.50076 | 22.03889 | 34976 ft | 464 kts | 163° |
| 2026-05-06 15:07 | 42.43992 | 22.06831 | 34985 ft | 464 kts | 164° |
| 2026-05-06 15:08 | 42.37907 | 22.09767 | 34982 ft | 464 kts | 164° |
| 2026-05-06 15:08 | 42.31819 | 22.12690 | 34991 ft | 464 kts | 164° |
| 2026-05-06 15:09 | 42.25727 | 22.15608 | 34979 ft | 465 kts | 163° |
| 2026-05-06 15:09 | 42.19629 | 22.18542 | 34963 ft | 466 kts | 163° |
| 2026-05-06 15:10 | 42.13561 | 22.21461 | 34975 ft | 466 kts | 163° |
| 2026-05-06 15:10 | 42.07441 | 22.24400 | 34976 ft | 467 kts | 163° |
| 2026-05-06 15:11 | 42.01325 | 22.27326 | 34979 ft | 467 kts | 163° |
| 2026-05-06 15:11 | 41.95202 | 22.30248 | 34971 ft | 467 kts | 163° |
| 2026-05-06 15:12 | 41.89085 | 22.33162 | 34986 ft | 467 kts | 163° |
| 2026-05-06 15:12 | 41.82957 | 22.36073 | 34988 ft | 467 kts | 163° |
| 2026-05-06 15:13 | 41.76834 | 22.38976 | 34979 ft | 467 kts | 163° |
| 2026-05-06 15:13 | 41.70710 | 22.41873 | 34980 ft | 467 kts | 163° |
| 2026-05-06 15:14 | 41.64583 | 22.44764 | 34986 ft | 466 kts | 163° |
| 2026-05-06 15:14 | 41.58459 | 22.47659 | 34992 ft | 467 kts | 163° |
| 2026-05-06 15:15 | 41.52315 | 22.50555 | 34977 ft | 469 kts | 163° |
| 2026-05-06 15:15 | 41.46194 | 22.53423 | 34982 ft | 469 kts | 163° |
| 2026-05-06 15:16 | 41.40038 | 22.56309 | 34988 ft | 469 kts | 163° |
| 2026-05-06 15:16 | 41.33870 | 22.59205 | 34982 ft | 470 kts | 163° |
| 2026-05-06 15:17 | 41.27702 | 22.62086 | 34987 ft | 470 kts | 163° |
| 2026-05-06 15:17 | 41.21539 | 22.64951 | 34989 ft | 469 kts | 163° |
| 2026-05-06 15:18 | 41.15373 | 22.67808 | 34991 ft | 469 kts | 163° |
| 2026-05-06 15:18 | 41.09191 | 22.70627 | 34985 ft | 469 kts | 164° |
| 2026-05-06 15:19 | 41.03051 | 22.73394 | 34997 ft | 469 kts | 164° |
| 2026-05-06 15:19 | 40.96861 | 22.76169 | 35003 ft | 470 kts | 164° |
| 2026-05-06 15:20 | 40.90675 | 22.78956 | 34997 ft | 470 kts | 163° |
| 2026-05-06 15:20 | 40.84484 | 22.81748 | 34997 ft | 470 kts | 163° |
| 2026-05-06 15:21 | 40.78296 | 22.84534 | 34999 ft | 470 kts | 164° |
| 2026-05-06 15:21 | 40.72113 | 22.87307 | 35014 ft | 470 kts | 164° |
| 2026-05-06 15:22 | 40.65923 | 22.90080 | 35018 ft | 470 kts | 164° |
| 2026-05-06 15:22 | 40.59733 | 22.92849 | 35022 ft | 469 kts | 164° |
| 2026-05-06 15:23 | 40.53552 | 22.95605 | 35018 ft | 469 kts | 164° |
| 2026-05-06 15:23 | 40.47360 | 22.98358 | 35031 ft | 469 kts | 164° |
| 2026-05-06 15:24 | 40.41194 | 23.01210 | 35024 ft | 470 kts | 162° |
| 2026-05-06 15:24 | 40.35081 | 23.04303 | 35021 ft | 471 kts | 161° |
| 2026-05-06 15:25 | 40.29019 | 23.07399 | 35031 ft | 470 kts | 161° |
| 2026-05-06 15:25 | 40.22903 | 23.10456 | 35034 ft | 471 kts | 162° |
| 2026-05-06 15:26 | 40.16769 | 23.13480 | 35037 ft | 471 kts | 162° |
| 2026-05-06 15:26 | 40.10626 | 23.16504 | 35039 ft | 472 kts | 162° |
| 2026-05-06 15:27 | 40.04474 | 23.19547 | 35035 ft | 472 kts | 162° |
| 2026-05-06 15:27 | 39.98330 | 23.22576 | 35029 ft | 472 kts | 162° |
| 2026-05-06 15:28 | 39.92175 | 23.25593 | 35029 ft | 472 kts | 162° |
| 2026-05-06 15:28 | 39.86027 | 23.28607 | 35035 ft | 472 kts | 162° |
| 2026-05-06 15:29 | 39.79911 | 23.31602 | 35037 ft | 472 kts | 162° |
| 2026-05-06 15:29 | 39.73763 | 23.34608 | 35035 ft | 472 kts | 162° |
| 2026-05-06 15:30 | 39.67612 | 23.37617 | 35038 ft | 472 kts | 162° |
| 2026-05-06 15:30 | 39.61453 | 23.40614 | 35036 ft | 472 kts | 162° |
| 2026-05-06 15:31 | 39.55300 | 23.43593 | 35047 ft | 472 kts | 162° |
| 2026-05-06 15:31 | 39.49138 | 23.46582 | 35036 ft | 473 kts | 162° |
| 2026-05-06 15:32 | 39.39892 | 23.51058 | 35044 ft | 473 kts | 162° |
| 2026-05-06 15:32 | 39.33754 | 23.54025 | 35044 ft | 474 kts | 162° |
| 2026-05-06 15:33 | 39.27578 | 23.57011 | 35032 ft | 474 kts | 162° |
| 2026-05-06 15:33 | 39.21405 | 23.59987 | 35041 ft | 474 kts | 162° |
| 2026-05-06 15:34 | 39.15214 | 23.62913 | 35048 ft | 474 kts | 164° |
| 2026-05-06 15:34 | 39.08970 | 23.65592 | 35047 ft | 473 kts | 165° |
| 2026-05-06 15:35 | 39.02706 | 23.68194 | 35040 ft | 473 kts | 165° |
| 2026-05-06 15:35 | 38.96457 | 23.70842 | 35045 ft | 473 kts | 165° |
| 2026-05-06 15:36 | 38.90259 | 23.73505 | 35050 ft | 473 kts | 165° |
| 2026-05-06 15:36 | 38.84015 | 23.76181 | 35039 ft | 473 kts | 165° |
| 2026-05-06 15:37 | 38.77765 | 23.78838 | 35042 ft | 474 kts | 165° |
| 2026-05-06 15:37 | 38.71499 | 23.81494 | 35044 ft | 475 kts | 165° |
| 2026-05-06 15:38 | 38.65229 | 23.84159 | 35047 ft | 475 kts | 165° |
| 2026-05-06 15:38 | 38.58947 | 23.86829 | 35048 ft | 475 kts | 165° |
| 2026-05-06 15:39 | 38.52665 | 23.89479 | 35062 ft | 475 kts | 165° |
| 2026-05-06 15:39 | 38.46377 | 23.92121 | 35068 ft | 475 kts | 165° |
| 2026-05-06 15:40 | 38.40141 | 23.94756 | 35067 ft | 475 kts | 165° |
| 2026-05-06 15:40 | 38.33876 | 23.97397 | 35059 ft | 474 kts | 165° |
| 2026-05-06 15:41 | 38.27601 | 24.00031 | 35058 ft | 474 kts | 165° |
| 2026-05-06 15:41 | 38.21333 | 24.02654 | 35067 ft | 474 kts | 165° |
| 2026-05-06 15:42 | 38.16121 | 24.04839 | 35068 ft | 474 kts | 165° |
| 2026-05-06 15:42 | 38.09845 | 24.07459 | 35075 ft | 474 kts | 165° |
| 2026-05-06 15:43 | 38.03566 | 24.10070 | 35068 ft | 475 kts | 165° |
| 2026-05-06 15:43 | 37.97279 | 24.12681 | 35068 ft | 476 kts | 165° |
| 2026-05-06 15:44 | 37.90985 | 24.15297 | 35075 ft | 476 kts | 165° |
| 2026-05-06 15:44 | 37.84688 | 24.17909 | 35071 ft | 476 kts | 165° |
| 2026-05-06 15:45 | 37.78396 | 24.20515 | 35080 ft | 476 kts | 165° |
| 2026-05-06 15:45 | 37.72103 | 24.23123 | 35076 ft | 476 kts | 165° |
| 2026-05-06 15:46 | 37.65808 | 24.25722 | 35067 ft | 475 kts | 165° |
| 2026-05-06 15:46 | 37.59516 | 24.28304 | 35078 ft | 475 kts | 165° |
| 2026-05-06 15:47 | 37.53484 | 24.31614 | 35082 ft | 479 kts | 150° |
| 2026-05-06 15:47 | 37.47843 | 24.36096 | 35081 ft | 479 kts | 150° |
| 2026-05-06 15:48 | 37.42175 | 24.40534 | 35084 ft | 480 kts | 150° |
| 2026-05-06 15:48 | 37.36497 | 24.44957 | 35069 ft | 480 kts | 150° |
| 2026-05-06 15:49 | 37.30821 | 24.49390 | 35068 ft | 480 kts | 150° |
| 2026-05-06 15:49 | 37.25152 | 24.53835 | 35071 ft | 480 kts | 150° |
| 2026-05-06 15:50 | 37.19471 | 24.58277 | 35079 ft | 480 kts | 150° |
| 2026-05-06 15:50 | 37.13788 | 24.62689 | 35077 ft | 480 kts | 150° |
| 2026-05-06 15:51 | 37.08106 | 24.67093 | 35085 ft | 480 kts | 150° |
| 2026-05-06 15:51 | 37.02431 | 24.71504 | 35086 ft | 480 kts | 150° |
| 2026-05-06 15:52 | 36.96791 | 24.75880 | 35093 ft | 480 kts | 150° |
| 2026-05-06 15:52 | 36.91108 | 24.80260 | 35091 ft | 480 kts | 150° |
| 2026-05-06 15:53 | 36.85433 | 24.84643 | 35084 ft | 480 kts | 150° |
| 2026-05-06 15:53 | 36.79765 | 24.89033 | 35089 ft | 479 kts | 150° |
| 2026-05-06 15:54 | 36.74092 | 24.93406 | 35093 ft | 479 kts | 150° |
| 2026-05-06 15:54 | 36.68424 | 24.97767 | 35095 ft | 479 kts | 150° |
| 2026-05-06 15:55 | 36.62752 | 25.02129 | 35104 ft | 479 kts | 150° |
| 2026-05-06 15:55 | 36.57078 | 25.06485 | 35096 ft | 479 kts | 150° |
| 2026-05-06 15:56 | 36.51398 | 25.10825 | 35096 ft | 479 kts | 150° |
| 2026-05-06 15:56 | 36.45718 | 25.15150 | 35099 ft | 479 kts | 150° |
| 2026-05-06 15:57 | 36.40025 | 25.19489 | 35230 ft | 480 kts | 150° |
| 2026-05-06 15:57 | 36.37177 | 25.21656 | 35441 ft | 479 kts | 150° |
| 2026-05-06 15:57 | 36.34371 | 25.23787 | 35641 ft | 479 kts | 150° |
| 2026-05-06 15:58 | 36.31536 | 25.25941 | 35838 ft | 477 kts | 150° |
| 2026-05-06 15:58 | 36.28707 | 25.28087 | 36050 ft | 476 kts | 150° |
| 2026-05-06 15:58 | 36.25882 | 25.30232 | 36241 ft | 476 kts | 150° |
| 2026-05-06 15:58 | 36.23064 | 25.32369 | 36415 ft | 475 kts | 150° |
| 2026-05-06 15:59 | 36.20241 | 25.34503 | 36575 ft | 475 kts | 150° |
| 2026-05-06 15:59 | 36.17422 | 25.36632 | 36725 ft | 475 kts | 150° |
| 2026-05-06 15:59 | 36.14605 | 25.38762 | 36881 ft | 475 kts | 150° |
| 2026-05-06 15:59 | 36.11784 | 25.40896 | 37054 ft | 474 kts | 150° |
| 2026-05-06 16:00 | 36.06179 | 25.45121 | 37093 ft | 474 kts | 150° |
| 2026-05-06 16:00 | 36.00522 | 25.49373 | 37108 ft | 473 kts | 150° |
| 2026-05-06 16:01 | 35.94941 | 25.53564 | 37102 ft | 472 kts | 150° |
| 2026-05-06 16:01 | 35.89327 | 25.57775 | 37099 ft | 472 kts | 150° |
| 2026-05-06 16:02 | 35.83715 | 25.61990 | 37101 ft | 472 kts | 150° |
| 2026-05-06 16:02 | 35.78101 | 25.66199 | 37088 ft | 472 kts | 150° |
| 2026-05-06 16:03 | 35.72482 | 25.70397 | 37101 ft | 472 kts | 150° |
| 2026-05-06 16:03 | 35.66854 | 25.74579 | 37096 ft | 472 kts | 150° |
| 2026-05-06 16:04 | 35.61227 | 25.78758 | 37093 ft | 473 kts | 150° |
| 2026-05-06 16:04 | 35.55601 | 25.82947 | 37098 ft | 473 kts | 150° |
| 2026-05-06 16:05 | 35.49971 | 25.87124 | 37104 ft | 473 kts | 150° |
| 2026-05-06 16:05 | 35.44375 | 25.91274 | 37102 ft | 473 kts | 150° |
| 2026-05-06 16:06 | 35.38737 | 25.95441 | 37116 ft | 473 kts | 151° |
| 2026-05-06 16:06 | 35.33081 | 25.99614 | 37107 ft | 474 kts | 151° |
| 2026-05-06 16:07 | 35.27425 | 26.03791 | 37101 ft | 475 kts | 151° |
| 2026-05-06 16:07 | 35.21760 | 26.07966 | 37104 ft | 475 kts | 151° |
| 2026-05-06 16:08 | 35.16094 | 26.12122 | 37102 ft | 475 kts | 151° |
| 2026-05-06 16:08 | 35.10460 | 26.16250 | 37103 ft | 475 kts | 151° |
| 2026-05-06 16:09 | 35.05001 | 26.20806 | 37111 ft | 477 kts | 141° |
| 2026-05-06 16:09 | 34.99970 | 26.26081 | 37110 ft | 477 kts | 141° |
| 2026-05-06 16:10 | 34.94913 | 26.31337 | 37096 ft | 477 kts | 141° |
| 2026-05-06 16:10 | 34.89849 | 26.36574 | 37099 ft | 477 kts | 141° |
| 2026-05-06 16:11 | 34.84791 | 26.41814 | 37103 ft | 477 kts | 141° |
| 2026-05-06 16:11 | 34.79735 | 26.47051 | 37110 ft | 477 kts | 141° |
| 2026-05-06 16:12 | 34.74685 | 26.52276 | 37105 ft | 477 kts | 141° |
| 2026-05-06 16:12 | 34.69632 | 26.57494 | 37113 ft | 477 kts | 141° |
| 2026-05-06 16:13 | 34.64566 | 26.62714 | 37090 ft | 477 kts | 141° |
| 2026-05-06 16:13 | 34.59498 | 26.67913 | 37093 ft | 477 kts | 141° |
| 2026-05-06 16:14 | 34.54431 | 26.73106 | 37099 ft | 477 kts | 141° |
| 2026-05-06 16:14 | 34.49393 | 26.78270 | 37101 ft | 477 kts | 141° |
| 2026-05-06 16:15 | 34.44328 | 26.83461 | 37098 ft | 477 kts | 141° |
| 2026-05-06 16:15 | 34.39253 | 26.88639 | 37101 ft | 477 kts | 142° |
| 2026-05-06 16:16 | 34.34179 | 26.93804 | 37086 ft | 477 kts | 142° |
| 2026-05-06 16:16 | 34.29104 | 26.98985 | 37094 ft | 477 kts | 142° |
| 2026-05-06 16:17 | 34.24030 | 27.04157 | 37097 ft | 477 kts | 142° |
| 2026-05-06 16:17 | 34.18938 | 27.09308 | 37103 ft | 477 kts | 142° |
| 2026-05-06 16:18 | 34.13690 | 27.14146 | 37104 ft | 472 kts | 156° |
| 2026-05-06 16:18 | 34.07748 | 27.17449 | 37107 ft | 470 kts | 159° |
| 2026-05-06 16:19 | 34.01804 | 27.20635 | 37093 ft | 471 kts | 159° |
| 2026-05-06 16:19 | 33.95814 | 27.23843 | 37093 ft | 471 kts | 159° |
| 2026-05-06 16:20 | 33.89835 | 27.27079 | 37102 ft | 472 kts | 158° |
| 2026-05-06 16:20 | 33.83876 | 27.30414 | 37106 ft | 472 kts | 158° |
| 2026-05-06 16:21 | 33.77936 | 27.33779 | 37095 ft | 472 kts | 158° |
| 2026-05-06 16:21 | 33.71988 | 27.37115 | 37103 ft | 472 kts | 158° |
| 2026-05-06 16:22 | 33.66031 | 27.40430 | 37111 ft | 471 kts | 158° |
| 2026-05-06 16:22 | 33.60076 | 27.43732 | 37117 ft | 471 kts | 158° |
| 2026-05-06 16:23 | 33.54128 | 27.47028 | 37117 ft | 471 kts | 158° |
| 2026-05-06 16:23 | 33.48169 | 27.50335 | 37106 ft | 471 kts | 158° |
| 2026-05-06 16:24 | 33.42226 | 27.53622 | 37121 ft | 470 kts | 159° |
| 2026-05-06 16:24 | 33.36316 | 27.56882 | 37128 ft | 471 kts | 159° |
| 2026-05-06 16:25 | 33.30375 | 27.60159 | 37127 ft | 470 kts | 158° |
| 2026-05-06 16:25 | 33.24425 | 27.63443 | 37115 ft | 470 kts | 159° |
| 2026-05-06 16:26 | 33.18489 | 27.66709 | 37118 ft | 470 kts | 159° |
| 2026-05-06 16:26 | 33.12549 | 27.69976 | 37123 ft | 470 kts | 159° |
| 2026-05-06 16:27 | 33.06615 | 27.73234 | 37125 ft | 470 kts | 159° |
| 2026-05-06 16:27 | 33.00674 | 27.76480 | 37124 ft | 469 kts | 159° |
| 2026-05-06 16:28 | 32.94740 | 27.79725 | 37109 ft | 469 kts | 159° |
| 2026-05-06 16:28 | 32.88808 | 27.82959 | 37113 ft | 469 kts | 159° |
| 2026-05-06 16:29 | 32.82875 | 27.86198 | 37120 ft | 469 kts | 159° |
| 2026-05-06 16:29 | 32.76943 | 27.89436 | 37121 ft | 469 kts | 159° |
| 2026-05-06 16:30 | 32.72972 | 27.91589 | 37122 ft | 469 kts | 159° |
| 2026-05-06 16:30 | 32.66072 | 27.95330 | 37124 ft | 469 kts | 159° |
| 2026-05-06 16:31 | 32.60128 | 27.98549 | 37123 ft | 469 kts | 159° |
| 2026-05-06 16:31 | 32.54196 | 28.01769 | 37124 ft | 469 kts | 159° |
| 2026-05-06 16:32 | 32.48258 | 28.04980 | 37129 ft | 469 kts | 159° |
| 2026-05-06 16:32 | 32.42357 | 28.08165 | 37116 ft | 469 kts | 159° |
| 2026-05-06 16:33 | 32.36418 | 28.11349 | 37124 ft | 468 kts | 159° |
| 2026-05-06 16:34 | 32.27530 | 28.16129 | 37123 ft | 468 kts | 159° |
| 2026-05-06 16:34 | 32.21606 | 28.19308 | 37124 ft | 468 kts | 159° |
| 2026-05-06 16:35 | 32.15683 | 28.22493 | 37128 ft | 468 kts | 159° |
| 2026-05-06 16:35 | 32.09761 | 28.25667 | 37119 ft | 468 kts | 159° |
| 2026-05-06 16:36 | 32.03829 | 28.28830 | 37126 ft | 468 kts | 159° |
| 2026-05-06 16:36 | 31.97926 | 28.31983 | 37127 ft | 468 kts | 159° |
| 2026-05-06 16:37 | 31.91995 | 28.35150 | 37127 ft | 468 kts | 159° |
| 2026-05-06 16:37 | 31.86066 | 28.38307 | 37112 ft | 468 kts | 159° |
| 2026-05-06 16:38 | 31.80142 | 28.41461 | 37118 ft | 468 kts | 159° |
| 2026-05-06 16:38 | 31.74203 | 28.44618 | 37128 ft | 468 kts | 160° |
| 2026-05-06 16:39 | 31.68266 | 28.47766 | 37133 ft | 468 kts | 160° |
| 2026-05-06 16:39 | 31.62371 | 28.50884 | 37137 ft | 468 kts | 160° |
| 2026-05-06 16:40 | 31.56436 | 28.54021 | 37122 ft | 468 kts | 160° |
| 2026-05-06 16:40 | 31.50500 | 28.57156 | 37127 ft | 468 kts | 160° |
| 2026-05-06 16:41 | 31.44563 | 28.60286 | 37130 ft | 467 kts | 160° |
| 2026-05-06 16:41 | 31.38626 | 28.63404 | 37134 ft | 468 kts | 160° |
| 2026-05-06 16:42 | 31.32692 | 28.66532 | 37131 ft | 468 kts | 160° |
| 2026-05-06 16:42 | 31.26759 | 28.69663 | 37124 ft | 467 kts | 160° |
| 2026-05-06 16:43 | 31.20826 | 28.72768 | 37139 ft | 467 kts | 160° |
| 2026-05-06 16:43 | 31.14931 | 28.75853 | 37144 ft | 467 kts | 160° |
| 2026-05-06 16:44 | 31.09005 | 28.78956 | 37140 ft | 467 kts | 160° |
| 2026-05-06 16:44 | 31.03060 | 28.82015 | 37121 ft | 466 kts | 160° |
| 2026-05-06 16:45 | 30.97107 | 28.85031 | 37127 ft | 466 kts | 161° |
| 2026-05-06 16:45 | 30.91154 | 28.88036 | 37131 ft | 466 kts | 161° |
| 2026-05-06 16:46 | 30.85208 | 28.91052 | 37126 ft | 466 kts | 160° |
| 2026-05-06 16:46 | 30.79265 | 28.94078 | 37127 ft | 466 kts | 160° |
| 2026-05-06 16:47 | 30.73358 | 28.97084 | 37104 ft | 466 kts | 161° |
| 2026-05-06 16:47 | 30.67411 | 29.00104 | 37114 ft | 466 kts | 161° |
| 2026-05-06 16:48 | 30.61461 | 29.03107 | 37120 ft | 466 kts | 161° |
| 2026-05-06 16:48 | 30.55510 | 29.06107 | 37121 ft | 466 kts | 161° |
| 2026-05-06 16:49 | 30.49766 | 29.09651 | 37120 ft | 473 kts | 147° |
| 2026-05-06 16:49 | 30.44951 | 29.14932 | 37098 ft | 478 kts | 137° |
| 2026-05-06 16:50 | 30.40338 | 29.20491 | 37098 ft | 478 kts | 137° |
| 2026-05-06 16:50 | 30.35715 | 29.26035 | 37092 ft | 479 kts | 137° |
| 2026-05-06 16:51 | 30.31099 | 29.31542 | 37095 ft | 479 kts | 137° |
| 2026-05-06 16:51 | 30.26464 | 29.37079 | 37095 ft | 479 kts | 137° |
| 2026-05-06 16:52 | 30.21831 | 29.42619 | 37100 ft | 479 kts | 137° |
| 2026-05-06 16:52 | 30.17187 | 29.48152 | 37102 ft | 479 kts | 137° |
| 2026-05-06 16:53 | 30.12535 | 29.53685 | 37109 ft | 480 kts | 137° |
| 2026-05-06 16:53 | 30.07886 | 29.59205 | 37076 ft | 480 kts | 138° |
| 2026-05-06 16:54 | 30.03258 | 29.64699 | 37086 ft | 480 kts | 138° |
| 2026-05-06 16:54 | 29.98600 | 29.70224 | 37096 ft | 480 kts | 138° |
| 2026-05-06 16:55 | 29.93936 | 29.75740 | 37100 ft | 480 kts | 138° |
| 2026-05-06 16:55 | 29.89273 | 29.81240 | 37093 ft | 480 kts | 138° |
| 2026-05-06 16:56 | 29.84599 | 29.86749 | 37082 ft | 480 kts | 138° |
| 2026-05-06 16:56 | 29.79935 | 29.92252 | 37079 ft | 480 kts | 138° |
| 2026-05-06 16:57 | 29.75265 | 29.97755 | 37076 ft | 480 kts | 138° |
| 2026-05-06 16:57 | 29.70591 | 30.03236 | 37075 ft | 480 kts | 138° |
| 2026-05-06 16:58 | 29.65918 | 30.08712 | 37075 ft | 480 kts | 138° |
| 2026-05-06 16:58 | 29.61280 | 30.14159 | 37066 ft | 480 kts | 138° |
| 2026-05-06 16:59 | 29.56599 | 30.19646 | 37069 ft | 480 kts | 138° |
| 2026-05-06 16:59 | 29.51919 | 30.25120 | 37064 ft | 480 kts | 139° |
| 2026-05-06 17:00 | 29.47223 | 30.30596 | 37070 ft | 480 kts | 139° |
| 2026-05-06 17:00 | 29.42531 | 30.36062 | 37077 ft | 481 kts | 139° |
| 2026-05-06 17:01 | 29.37866 | 30.41498 | 37049 ft | 481 kts | 138° |
| 2026-05-06 17:01 | 29.33219 | 30.47041 | 37058 ft | 481 kts | 138° |
| 2026-05-06 17:02 | 29.28599 | 30.52596 | 37060 ft | 482 kts | 138° |
| 2026-05-06 17:02 | 29.23963 | 30.58141 | 37064 ft | 481 kts | 138° |
| 2026-05-06 17:03 | 29.19319 | 30.63659 | 37068 ft | 481 kts | 138° |
| 2026-05-06 17:03 | 29.14668 | 30.69183 | 37071 ft | 481 kts | 138° |
| 2026-05-06 17:04 | 29.10016 | 30.74704 | 37072 ft | 481 kts | 138° |
| 2026-05-06 17:04 | 29.05365 | 30.80218 | 37071 ft | 482 kts | 138° |
| 2026-05-06 17:05 | 29.00732 | 30.85688 | 37057 ft | 482 kts | 139° |
| 2026-05-06 17:05 | 28.96059 | 30.91196 | 37065 ft | 483 kts | 139° |
| 2026-05-06 17:06 | 28.91387 | 30.96720 | 37066 ft | 483 kts | 139° |
| 2026-05-06 17:06 | 28.86709 | 31.02239 | 37073 ft | 483 kts | 139° |
| 2026-05-06 17:07 | 28.82032 | 31.07743 | 37084 ft | 484 kts | 139° |
| 2026-05-06 17:07 | 28.77334 | 31.13264 | 37086 ft | 484 kts | 139° |
| 2026-05-06 17:08 | 28.72647 | 31.18753 | 37089 ft | 483 kts | 139° |
| 2026-05-06 17:08 | 28.67965 | 31.24269 | 37066 ft | 484 kts | 137° |
| 2026-05-06 17:09 | 28.63506 | 31.29882 | 37062 ft | 485 kts | 136° |
| 2026-05-06 17:09 | 28.59044 | 31.35647 | 37074 ft | 485 kts | 136° |
| 2026-05-06 17:10 | 28.54539 | 31.41366 | 37069 ft | 485 kts | 137° |
| 2026-05-06 17:10 | 28.49994 | 31.47052 | 37079 ft | 485 kts | 137° |
| 2026-05-06 17:11 | 28.45451 | 31.52715 | 37076 ft | 485 kts | 137° |
| 2026-05-06 17:11 | 28.40919 | 31.58388 | 37079 ft | 485 kts | 137° |
| 2026-05-06 17:12 | 28.36396 | 31.64059 | 37074 ft | 484 kts | 137° |
| 2026-05-06 17:12 | 28.31869 | 31.69729 | 37066 ft | 484 kts | 137° |
| 2026-05-06 17:13 | 28.27337 | 31.75382 | 37048 ft | 484 kts | 137° |
| 2026-05-06 17:13 | 28.22795 | 31.81024 | 37042 ft | 484 kts | 137° |
| 2026-05-06 17:14 | 28.18249 | 31.86665 | 37049 ft | 484 kts | 137° |
| 2026-05-06 17:14 | 28.13704 | 31.92301 | 37054 ft | 484 kts | 137° |
| 2026-05-06 17:15 | 28.09160 | 31.97937 | 37053 ft | 484 kts | 137° |
| 2026-05-06 17:15 | 28.04634 | 32.03572 | 37054 ft | 485 kts | 134° |
| 2026-05-06 17:16 | 28.00999 | 32.10021 | 37035 ft | 493 kts | 122° |
| 2026-05-06 17:16 | 27.97735 | 32.16841 | 37035 ft | 493 kts | 122° |
| 2026-05-06 17:17 | 27.94451 | 32.23643 | 37025 ft | 493 kts | 123° |
| 2026-05-06 17:17 | 27.91711 | 32.29292 | 37023 ft | 493 kts | 123° |
| 2026-05-06 17:18 | 27.88419 | 32.36087 | 36969 ft | 493 kts | 123° |
| 2026-05-06 17:18 | 27.85127 | 32.42885 | 36974 ft | 493 kts | 123° |
| 2026-05-06 17:19 | 27.81837 | 32.49682 | 36980 ft | 493 kts | 123° |
| 2026-05-06 17:19 | 27.78536 | 32.56470 | 36985 ft | 493 kts | 123° |
| 2026-05-06 17:19 | 27.76885 | 32.59861 | 36821 ft | 492 kts | 123° |
| 2026-05-06 17:20 | 27.75234 | 32.63255 | 36096 ft | 492 kts | 123° |
| 2026-05-06 17:20 | 27.73585 | 32.66640 | 35371 ft | 493 kts | 123° |
| 2026-05-06 17:20 | 27.71918 | 32.70031 | 34643 ft | 494 kts | 124° |
| 2026-05-06 17:20 | 27.70179 | 32.73386 | 33905 ft | 494 kts | 126° |
| 2026-05-06 17:21 | 27.68373 | 32.76686 | 33057 ft | 494 kts | 127° |
| 2026-05-06 17:21 | 27.66525 | 32.79958 | 32241 ft | 494 kts | 127° |
| 2026-05-06 17:21 | 27.64673 | 32.83204 | 31658 ft | 489 kts | 127° |
| 2026-05-06 17:21 | 27.62853 | 32.86417 | 31105 ft | 484 kts | 126° |
| 2026-05-06 17:22 | 27.61058 | 32.89617 | 30547 ft | 480 kts | 126° |
| 2026-05-06 17:22 | 27.59297 | 32.92787 | 29998 ft | 475 kts | 126° |
| 2026-05-06 17:22 | 27.57578 | 32.95898 | 29395 ft | 471 kts | 125° |
| 2026-05-06 17:22 | 27.55859 | 32.99019 | 28818 ft | 466 kts | 125° |
| 2026-05-06 17:23 | 27.54136 | 33.02145 | 28250 ft | 461 kts | 125° |
| 2026-05-06 17:23 | 27.52466 | 33.05166 | 27709 ft | 457 kts | 125° |
| 2026-05-06 17:23 | 27.50796 | 33.08181 | 27166 ft | 452 kts | 125° |
| 2026-05-06 17:23 | 27.49138 | 33.11169 | 26640 ft | 447 kts | 125° |
| 2026-05-06 17:24 | 27.47495 | 33.14125 | 26082 ft | 444 kts | 125° |
| 2026-05-06 17:24 | 27.45844 | 33.17092 | 25352 ft | 452 kts | 125° |
| 2026-05-06 17:24 | 27.44158 | 33.20112 | 24648 ft | 456 kts | 124° |
| 2026-05-06 17:24 | 27.42473 | 33.23132 | 23969 ft | 454 kts | 124° |
| 2026-05-06 17:25 | 27.40792 | 33.26142 | 23246 ft | 453 kts | 124° |
| 2026-05-06 17:25 | 27.39122 | 33.29133 | 22438 ft | 451 kts | 124° |
| 2026-05-06 17:25 | 27.37454 | 33.32124 | 21670 ft | 450 kts | 124° |
| 2026-05-06 17:25 | 27.35791 | 33.35107 | 20921 ft | 449 kts | 124° |
| 2026-05-06 17:26 | 27.34132 | 33.38080 | 20190 ft | 448 kts | 124° |
| 2026-05-06 17:26 | 27.32480 | 33.41036 | 19475 ft | 446 kts | 124° |
| 2026-05-06 17:26 | 27.30826 | 33.43990 | 18788 ft | 445 kts | 124° |
| 2026-05-06 17:26 | 27.29203 | 33.46890 | 18085 ft | 443 kts | 124° |
| 2026-05-06 17:27 | 27.27567 | 33.49817 | 17299 ft | 441 kts | 124° |
| 2026-05-06 17:27 | 27.25940 | 33.52729 | 16544 ft | 439 kts | 124° |
| 2026-05-06 17:27 | 27.24312 | 33.55631 | 15805 ft | 437 kts | 124° |
| 2026-05-06 17:27 | 27.22692 | 33.58507 | 15084 ft | 435 kts | 124° |
| 2026-05-06 17:28 | 27.21068 | 33.61371 | 14381 ft | 432 kts | 126° |
| 2026-05-06 17:28 | 27.19110 | 33.63896 | 13676 ft | 427 kts | 141° |
| 2026-05-06 17:28 | 27.16643 | 33.65705 | 12909 ft | 420 kts | 157° |
| 2026-05-06 17:28 | 27.13894 | 33.66734 | 12164 ft | 415 kts | 167° |
| 2026-05-06 17:29 | 27.11112 | 33.67556 | 11425 ft | 412 kts | 167° |
| 2026-05-06 17:29 | 27.08351 | 33.68369 | 10712 ft | 408 kts | 167° |
| 2026-05-06 17:29 | 27.05619 | 33.69163 | 10007 ft | 404 kts | 167° |
| 2026-05-06 17:29 | 27.02908 | 33.69920 | 9254 ft | 400 kts | 168° |
| 2026-05-06 17:30 | 27.00220 | 33.70660 | 8497 ft | 390 kts | 168° |
| 2026-05-06 17:30 | 26.97663 | 33.71373 | 7773 ft | 369 kts | 168° |
| 2026-05-06 17:30 | 26.95235 | 33.72062 | 7059 ft | 351 kts | 168° |
| 2026-05-06 17:30 | 26.92919 | 33.72735 | 6347 ft | 338 kts | 168° |
| 2026-05-06 17:31 | 26.90767 | 33.73626 | 5618 ft | 333 kts | 150° |
| 2026-05-06 17:31 | 26.89098 | 33.75330 | 5127 ft | 317 kts | 124° |
| 2026-05-06 17:31 | 26.88272 | 33.77545 | 4934 ft | 307 kts | 98° |
| 2026-05-06 17:31 | 26.88349 | 33.79894 | 4711 ft | 302 kts | 72° |
| 2026-05-06 17:32 | 26.89296 | 33.81938 | 4486 ft | 294 kts | 46° |
| 2026-05-06 17:32 | 26.90884 | 33.83324 | 4218 ft | 289 kts | 27° |
| 2026-05-06 17:32 | 26.92644 | 33.84377 | 3917 ft | 285 kts | 25° |
| 2026-05-06 17:32 | 26.94401 | 33.85378 | 3628 ft | 281 kts | 22° |
| 2026-05-06 17:33 | 26.96255 | 33.85976 | 3338 ft | 274 kts | 5° |
| 2026-05-06 17:33 | 26.98090 | 33.85908 | 3065 ft | 253 kts | 348° |
| 2026-05-06 17:33 | 26.99710 | 33.85446 | 2991 ft | 227 kts | 343° |
| 2026-05-06 17:33 | 27.01200 | 33.85010 | 2927 ft | 217 kts | 343° |
| 2026-05-06 17:34 | 27.02618 | 33.84593 | 2702 ft | 210 kts | 344° |
| 2026-05-06 17:34 | 27.04032 | 33.84177 | 2442 ft | 205 kts | 343° |
| 2026-05-06 17:34 | 27.05363 | 33.83785 | 2180 ft | 194 kts | 344° |
| 2026-05-06 17:34 | 27.06639 | 33.83409 | 1964 ft | 186 kts | 343° |
| 2026-05-06 17:35 | 27.07856 | 33.83050 | 1712 ft | 175 kts | 343° |
| 2026-05-06 17:35 | 27.08989 | 33.82717 | 1476 ft | 160 kts | 343° |
| 2026-05-06 17:35 | 27.10029 | 33.82410 | 1304 ft | 146 kts | 344° |
| 2026-05-06 17:36 | 27.11953 | 33.81849 | 920 ft | 140 kts | 345° |
| 2026-05-06 17:36 | 27.12904 | 33.81585 | 714 ft | 142 kts | 345° |
| 2026-05-06 17:36 | 27.13846 | 33.81299 | 520 ft | 139 kts | 343° |
| 2026-05-06 17:36 | 27.14773 | 33.81026 | 381 ft | 139 kts | 341° |
| 2026-05-06 17:37 | 27.15718 | 33.80734 | 212 ft | 139 kts | 344° |
| 2026-05-06 17:37 | 27.16636 | 33.80461 | 60 ft | 131 kts | 345° |
| 2026-05-06 17:37 | 27.17393 | 33.80237 | 51 ft | 88 kts | 345° |
| 2026-05-06 17:37 | 27.17842 | 33.80103 | 53 ft | 54 kts | 345° |
| 2026-05-06 17:38 | 27.18170 | 33.80006 | 48 ft | 44 kts | 345° |
| 2026-05-06 17:38 | 27.18394 | 33.79940 | 50 ft | 15 kts | 348° |
| 2026-05-06 17:38 | 27.18459 | 33.80006 | 50 ft | 11 kts | 72° |
| 2026-05-06 17:38 | 27.18481 | 33.80053 | 48 ft | 6 kts | 46° |
| 2026-05-06 17:39 | 27.18514 | 33.80071 | 50 ft | 4 kts | 11° |
| 2026-05-06 17:39 | 27.18560 | 33.80065 | 51 ft | 12 kts | 347° |
| 2026-05-06 17:39 | 27.18652 | 33.80038 | 53 ft | 13 kts | 346° |
| 2026-05-06 17:39 | 27.18741 | 33.80010 | 56 ft | 13 kts | 344° |
| 2026-05-06 17:40 | 27.18834 | 33.79982 | 55 ft | 14 kts | 345° |
| 2026-05-06 17:40 | 27.18928 | 33.79957 | 57 ft | 12 kts | 2° |
| 2026-05-06 17:40 | 27.18971 | 33.80039 | 58 ft | 13 kts | 76° |
| 2026-05-06 17:40 | 27.19023 | 33.80093 | 58 ft | 11 kts | 355° |
| 2026-05-06 17:41 | 27.19106 | 33.80069 | 55 ft | 13 kts | 346° |
| 2026-05-06 17:41 | 27.19187 | 33.80091 | 56 ft | 14 kts | 61° |
| 2026-05-06 17:41 | 27.19210 | 33.80198 | 58 ft | 14 kts | 101° |
| 2026-05-06 17:41 | 27.19137 | 33.80245 | 54 ft | 12 kts | 162° |
| 2026-05-06 17:42 | 27.19133 | 33.80288 | 54 ft | 5 kts | 78° |
| 2026-05-06 17:42 | 27.19141 | 33.80321 | 57 ft | 4 kts | 76° |
| 2026-05-06 17:42 | 27.19142 | 33.80327 | 58 ft | 0 kts | 75° |